Terminal Aerodrome Forecast
Issued by NWS Atlanta, GA

Home | Current Version | Previous Version | Text Only | Print | Product List | Glossary On
Versions: 1 2 3 4 5 6 7 8 9 10 11 12 13 14 15 16 17 18 19 20 21 22 23
000
FTUS42 KFFC 310520
TAFMCN
TAF
KMCN 310520Z 3106/0106 04003KT 5SM BR OVC008
     FM310800 04003KT 3SM BR OVC003
      TEMPO 3108/3112 1SM BR
     FM311500 03005KT P6SM BKN015
     FM311700 03005KT P6SM BKN025
     FM311900 07005KT P6SM SCT040
     FM010000 00000KT P6SM SCT045 SCT250=

USA.gov is the U.S. government's official web portal to all federal, state and local government web resources and services.